createdAt,value
2023-04-18T00:00:32.756Z,4.85
2023-04-18T00:03:22.396Z,4.53
2023-04-18T00:05:55.122Z,4.85
2023-04-18T00:08:28.901Z,5.65
2023-04-18T00:11:01.738Z,4.53
2023-04-18T00:13:35.370Z,5.05
2023-04-18T00:16:14.989Z,5.57
2023-04-18T00:18:48.589Z,6.15
2023-04-18T00:21:22.842Z,5.72
2023-04-18T00:23:56.108Z,4.93
2023-04-18T00:26:28.822Z,5.70
2023-04-18T00:29:04.039Z,5.65
2023-04-18T00:31:38.185Z,5.25
2023-04-18T00:34:11.618Z,6.10
2023-04-18T00:36:44.282Z,5.45
2023-04-18T00:39:17.716Z,4.95
2023-04-18T00:41:50.374Z,6.15
2023-04-18T00:44:23.372Z,4.95
2023-04-18T00:46:56.717Z,5.80
2023-04-18T00:49:32.272Z,6.38
2023-04-18T00:52:09.266Z,6.25
2023-04-18T00:54:42.785Z,5.18
2023-04-18T00:57:15.999Z,5.18
2023-04-18T00:59:49.008Z,5.55
2023-04-18T01:02:22.595Z,4.82
2023-04-18T01:04:55.924Z,5.13
2023-04-18T01:07:28.954Z,5.53
2023-04-18T01:10:07.988Z,4.90
2023-04-18T01:12:41.236Z,4.80
2023-04-18T01:15:14.256Z,5.18
2023-04-18T01:17:47.447Z,5.25
2023-04-18T01:20:21.950Z,4.68
2023-04-18T01:22:55.202Z,4.07
2023-04-18T01:25:28.328Z,4.18
2023-04-18T01:28:07.734Z,4.20
2023-04-18T01:30:40.855Z,4.65
2023-04-18T01:33:13.436Z,5.25
2023-04-18T01:35:46.562Z,3.65
2023-04-18T01:38:19.248Z,5.13
2023-04-18T01:40:52.922Z,4.10
2023-04-18T01:43:26.002Z,3.65
2023-04-18T01:45:59.353Z,3.72
2023-04-18T01:48:39.447Z,4.32
2023-04-18T01:51:12.601Z,3.75
2023-04-18T01:53:45.302Z,5.45
2023-04-18T01:56:18.460Z,3.90
2023-04-18T01:58:51.139Z,4.60
2023-04-18T02:01:24.570Z,3.97
2023-04-18T02:03:57.654Z,4.20
2023-04-18T02:06:33.291Z,3.75
2023-04-18T02:09:08.807Z,4.20
2023-04-18T02:11:41.876Z,3.80
2023-04-18T02:14:15.082Z,4.45
2023-04-18T02:16:48.411Z,3.38
2023-04-18T02:19:21.221Z,4.55
2023-04-18T02:21:55.109Z,3.70
2023-04-18T02:24:27.912Z,3.50
2023-04-18T02:27:03.285Z,3.47
2023-04-18T02:29:38.139Z,3.58
2023-04-18T02:32:11.472Z,4.22
2023-04-18T02:34:44.280Z,3.60
2023-04-18T02:37:17.259Z,4.55
2023-04-18T02:39:49.941Z,4.65
2023-04-18T02:42:23.026Z,4.13
2023-04-18T02:44:55.883Z,4.93
2023-04-18T02:47:30.409Z,4.60
2023-04-18T02:50:09.224Z,5.63
2023-04-18T02:52:44.318Z,3.53
2023-04-18T02:55:17.452Z,4.60
2023-04-18T02:57:51.461Z,3.60
2023-04-18T03:00:57.305Z,3.67
2023-04-18T03:03:38.164Z,3.50
2023-04-18T03:06:24.756Z,6.43
2023-04-18T03:08:58.995Z,5.55
2023-04-18T03:11:36.798Z,4.00
2023-04-18T03:14:12.311Z,4.10
2023-04-18T03:16:55.736Z,3.60
2023-04-18T03:19:38.484Z,3.03
2023-04-18T03:22:16.653Z,4.88
2023-04-18T03:25:04.972Z,3.95
2023-04-18T03:27:48.594Z,3.58
2023-04-18T03:30:25.070Z,2.88
2023-04-18T03:33:04.692Z,4.07
2023-04-18T03:35:41.311Z,3.55
2023-04-18T03:38:13.972Z,3.33
2023-04-18T03:40:47.160Z,2.97
2023-04-18T03:43:27.996Z,3.78
2023-04-18T03:46:02.419Z,3.97
2023-04-18T03:48:38.893Z,3.90
2023-04-18T03:51:16.068Z,3.55
2023-04-18T03:53:48.776Z,4.03
2023-04-18T03:56:23.769Z,3.33
2023-04-18T03:58:59.224Z,3.47
2023-04-18T04:01:38.930Z,3.58
2023-04-18T04:04:13.475Z,2.60
2023-04-18T04:06:47.252Z,2.47
2023-04-18T04:09:21.941Z,3.47
2023-04-18T04:11:56.546Z,3.80
2023-04-18T04:14:29.851Z,3.67
2023-04-18T04:17:08.379Z,4.00
2023-04-18T04:19:42.455Z,4.28
2023-04-18T04:22:19.267Z,3.47
2023-04-18T04:24:52.259Z,3.72
2023-04-18T04:27:38.122Z,3.30
2023-04-18T04:30:13.795Z,3.00
2023-04-18T04:32:47.998Z,3.63
2023-04-18T04:35:21.618Z,3.45
2023-04-18T04:37:55.009Z,3.47
2023-04-18T04:40:41.059Z,2.88
2023-04-18T04:43:17.818Z,3.28
2023-04-18T04:45:53.502Z,3.10
2023-04-18T04:48:29.632Z,3.28
2023-04-18T04:51:02.361Z,3.83
2023-04-18T04:53:36.090Z,3.38
2023-04-18T04:56:09.764Z,3.55
2023-04-18T04:58:42.777Z,3.00
2023-04-18T05:04:31.413Z,2.90
2023-04-18T05:07:04.149Z,2.95
2023-04-18T05:09:37.099Z,3.72
2023-04-18T05:12:09.854Z,3.22
2023-04-18T05:14:42.791Z,3.20
2023-04-18T05:17:15.330Z,3.03
2023-04-18T05:19:48.314Z,2.72
2023-04-18T05:22:20.956Z,3.40
2023-04-18T05:24:54.007Z,4.13
2023-04-18T05:27:26.920Z,3.60
2023-04-18T05:29:59.994Z,3.88
2023-04-18T05:32:32.711Z,2.92
2023-04-18T05:35:06.728Z,4.05
2023-04-18T05:37:39.734Z,3.35
2023-04-18T05:40:13.186Z,4.28
2023-04-18T05:42:45.836Z,3.53
2023-04-18T05:45:18.874Z,3.38
2023-04-18T05:47:51.622Z,4.05
2023-04-18T05:50:24.706Z,3.22
2023-04-18T05:52:59.641Z,3.75
2023-04-18T05:55:32.719Z,3.20
2023-04-18T05:58:05.422Z,3.97
2023-04-18T06:00:38.502Z,3.88
2023-04-18T06:03:11.687Z,3.58
2023-04-18T06:05:45.017Z,2.63
2023-04-18T06:08:18.139Z,3.85
2023-04-18T06:10:52.674Z,4.18
2023-04-18T06:13:25.257Z,3.20
2023-04-18T06:15:58.635Z,3.13
2023-04-18T06:18:31.778Z,3.45
2023-04-18T06:21:04.934Z,3.63
2023-04-18T06:23:38.872Z,3.95
2023-04-18T06:26:11.855Z,3.78
2023-04-18T06:28:44.454Z,3.65
2023-04-18T06:31:17.657Z,3.70
2023-04-18T06:33:50.280Z,4.38
2023-04-18T06:36:23.417Z,3.88
2023-04-18T06:38:56.692Z,3.88
2023-04-18T06:41:32.069Z,3.88
2023-04-18T06:44:04.901Z,4.05
2023-04-18T06:46:38.257Z,4.55
2023-04-18T06:49:10.906Z,3.92
2023-04-18T06:51:44.339Z,4.82
2023-04-18T06:54:17.026Z,4.63
2023-04-18T06:56:50.031Z,4.07
2023-04-18T06:59:23.750Z,4.15
2023-04-18T07:01:57.640Z,3.85
2023-04-18T07:04:32.439Z,4.13
2023-04-18T07:07:05.789Z,3.83
2023-04-18T07:09:38.427Z,4.05
2023-04-18T07:12:11.554Z,3.67
2023-04-18T07:14:44.197Z,4.80
2023-04-18T07:17:18.200Z,4.47
2023-04-18T07:19:50.905Z,4.30
2023-04-18T07:22:23.830Z,4.55
2023-04-18T07:24:56.391Z,4.22
2023-04-18T07:27:29.353Z,4.30
2023-04-18T07:30:02.151Z,4.63
2023-04-18T07:32:35.193Z,4.97
2023-04-18T07:35:08.270Z,5.28
2023-04-18T07:37:41.470Z,4.85
2023-04-18T07:40:14.277Z,3.75
2023-04-18T07:42:47.361Z,4.15
2023-04-18T07:45:19.960Z,5.05
2023-04-18T07:47:53.013Z,5.78
2023-04-18T07:50:25.669Z,5.15
2023-04-18T07:52:58.645Z,4.60
2023-04-18T07:55:31.388Z,5.10
2023-04-18T07:58:04.352Z,5.22
2023-04-18T08:00:40.169Z,4.15
2023-04-18T08:03:13.731Z,5.25
2023-04-18T08:05:46.477Z,4.72
2023-04-18T08:08:19.516Z,5.55
2023-04-18T08:10:52.136Z,5.85
2023-04-18T08:13:25.047Z,5.80
2023-04-18T08:16:00.198Z,4.85
2023-04-18T08:18:33.243Z,5.07
2023-04-18T08:21:06.001Z,5.88
2023-04-18T08:23:39.388Z,4.75
2023-04-18T08:26:11.915Z,5.80
2023-04-18T08:28:46.452Z,5.68
2023-04-18T08:31:19.411Z,5.90
2023-04-18T08:33:52.326Z,5.30
2023-04-18T08:36:25.478Z,5.97
2023-04-18T08:38:58.497Z,5.20
2023-04-18T08:41:33.986Z,4.88
2023-04-18T08:44:07.241Z,5.00
2023-04-18T08:46:39.860Z,4.82
2023-04-18T08:49:13.333Z,4.32
2023-04-18T08:51:47.870Z,4.68
2023-04-18T08:54:22.854Z,4.88
2023-04-18T08:57:05.355Z,5.00
2023-04-18T08:59:38.785Z,5.40
2023-04-18T09:02:12.500Z,4.55
2023-04-18T09:04:46.532Z,4.25
2023-04-18T09:07:21.118Z,5.00
2023-04-18T09:09:54.545Z,5.22
2023-04-18T09:12:28.016Z,4.07
2023-04-18T09:15:11.360Z,5.38
2023-04-18T09:17:51.461Z,4.65
2023-04-18T09:20:41.612Z,5.00
2023-04-18T09:23:23.781Z,4.80
2023-04-18T09:25:57.684Z,4.63
2023-04-18T09:28:31.607Z,4.40
2023-04-18T09:31:15.942Z,4.38
2023-04-18T09:33:57.149Z,4.95
2023-04-18T09:36:31.736Z,4.18
2023-04-18T09:39:04.619Z,5.03
2023-04-18T09:41:37.620Z,5.53
2023-04-18T09:44:15.919Z,4.57
2023-04-18T09:46:49.815Z,4.25
2023-04-18T09:49:22.914Z,3.72
2023-04-18T09:51:56.421Z,4.35
2023-04-18T09:54:31.565Z,5.07
2023-04-18T09:57:09.557Z,3.75
2023-04-18T09:59:45.010Z,4.68
2023-04-18T10:02:22.594Z,3.50
2023-04-18T10:04:56.979Z,3.80
2023-04-18T10:07:31.656Z,3.92
2023-04-18T10:10:04.600Z,3.33
2023-04-18T10:12:38.458Z,3.78
2023-04-18T10:15:12.111Z,3.58
2023-04-18T10:18:00.249Z,4.53
2023-04-18T10:20:36.404Z,2.95
2023-04-18T10:23:28.226Z,4.10
2023-04-18T10:26:01.597Z,3.83
2023-04-18T10:28:50.138Z,3.35
2023-04-18T10:31:24.100Z,4.53
2023-04-18T10:36:36.498Z,3.55
2023-04-18T10:39:22.745Z,3.78
2023-04-18T10:41:55.314Z,4.43
2023-04-18T10:44:28.434Z,2.97
2023-04-18T10:47:02.288Z,3.25
2023-04-18T10:49:38.383Z,3.28
2023-04-18T10:52:13.347Z,4.05
2023-04-18T10:54:59.210Z,3.45
2023-04-18T10:57:45.377Z,3.72
2023-04-18T11:00:20.923Z,3.33
2023-04-18T11:02:56.738Z,3.50
2023-04-18T11:05:30.236Z,3.45
2023-04-18T11:08:02.894Z,4.15
2023-04-18T11:10:36.009Z,4.07
2023-04-18T11:13:08.653Z,4.20
2023-04-18T11:15:41.604Z,4.25
2023-04-18T11:18:14.377Z,4.22
2023-04-18T11:20:49.424Z,2.97
2023-04-18T11:23:25.280Z,4.18
2023-04-18T11:25:59.016Z,3.95
2023-04-18T11:28:32.807Z,3.22
2023-04-18T11:31:05.942Z,3.28
2023-04-18T11:33:38.709Z,4.13
2023-04-18T11:36:12.298Z,3.25
2023-04-18T11:38:44.885Z,3.45
2023-04-18T11:41:17.849Z,4.47
2023-04-18T11:43:50.429Z,3.50
2023-04-18T11:46:23.499Z,3.97
2023-04-18T11:48:56.179Z,3.38
2023-04-18T11:51:33.435Z,3.45
2023-04-18T11:54:06.200Z,3.28
2023-04-18T11:56:47.308Z,3.78
2023-04-18T11:59:20.913Z,3.13
2023-04-18T12:02:14.827Z,3.53
2023-04-18T12:05:00.946Z,4.22
2023-04-18T12:07:35.174Z,3.42
2023-04-18T12:10:24.389Z,3.65
2023-04-18T12:13:01.521Z,3.33
2023-04-18T12:15:34.197Z,3.00
2023-04-18T12:18:08.961Z,2.85
2023-04-18T12:20:52.751Z,4.03
2023-04-18T12:23:30.183Z,2.80
2023-04-18T12:26:06.644Z,3.28
2023-04-18T12:28:49.338Z,3.88
2023-04-18T12:31:32.385Z,3.85
2023-04-18T12:34:18.462Z,3.67
2023-04-18T12:37:04.394Z,4.57
2023-04-18T12:39:52.021Z,4.15
2023-04-18T12:42:38.953Z,4.18
2023-04-18T12:45:25.753Z,4.10
2023-04-18T12:48:09.501Z,3.80
2023-04-18T12:50:55.111Z,4.45
2023-04-18T12:53:40.481Z,4.20
2023-04-18T12:56:28.351Z,3.90
2023-04-18T12:59:14.232Z,4.05
2023-04-18T13:02:01.678Z,4.70
2023-04-18T13:04:38.810Z,4.88
2023-04-18T13:07:26.399Z,4.93
2023-04-18T13:09:59.400Z,4.38
2023-04-18T13:12:32.106Z,4.25
2023-04-18T13:15:07.447Z,4.05
2023-04-18T13:17:40.476Z,4.55
2023-04-18T13:20:14.228Z,5.35
2023-04-18T13:22:47.488Z,4.65
2023-04-18T13:25:20.702Z,4.75
2023-04-18T13:27:53.365Z,4.93
2023-04-18T13:30:26.437Z,3.97
2023-04-18T13:32:59.170Z,4.35
2023-04-18T13:35:32.154Z,3.75
2023-04-18T13:38:05.399Z,5.13
2023-04-18T13:40:39.232Z,5.03
2023-04-18T13:43:13.432Z,4.72
2023-04-18T13:45:46.539Z,3.90
2023-04-18T13:48:19.152Z,3.78
2023-04-18T13:50:52.204Z,4.20
2023-04-18T13:53:24.784Z,3.45
2023-04-18T13:55:57.755Z,3.17
2023-04-18T13:58:30.642Z,3.83
2023-04-18T14:01:03.764Z,3.13
2023-04-18T14:03:38.380Z,3.05
2023-04-18T14:06:13.006Z,3.83
2023-04-18T14:08:45.671Z,3.50
2023-04-18T14:11:18.757Z,2.97
2023-04-18T14:13:51.412Z,2.70
2023-04-18T14:19:11.105Z,2.90
2023-04-18T14:21:44.359Z,2.97
2023-04-18T14:24:17.039Z,2.70
2023-04-18T14:26:50.037Z,2.72
2023-04-18T14:29:22.753Z,2.63
2023-04-18T14:31:56.293Z,3.72
2023-04-18T14:34:30.033Z,2.88
2023-04-18T14:37:04.275Z,2.63
2023-04-18T14:39:38.483Z,2.65
2023-04-18T14:42:11.651Z,3.30
2023-04-18T14:44:44.189Z,3.60
2023-04-18T14:47:17.294Z,3.28
2023-04-18T14:49:49.912Z,3.70
2023-04-18T14:52:22.956Z,3.90
2023-04-18T14:54:56.023Z,4.38
2023-04-18T14:57:31.798Z,4.85
2023-04-18T15:00:14.212Z,4.47
2023-04-18T15:02:47.729Z,4.50
2023-04-18T15:05:23.989Z,4.22
2023-04-18T15:07:58.867Z,4.90
2023-04-18T15:10:31.559Z,5.03
2023-04-18T15:13:05.015Z,5.78
2023-04-18T15:15:38.364Z,4.55
2023-04-18T15:18:12.706Z,6.20
2023-04-18T15:20:45.499Z,4.75
2023-04-18T15:23:18.614Z,4.70
2023-04-18T15:25:51.196Z,5.25
2023-04-18T15:28:24.538Z,6.82
2023-04-18T15:30:57.293Z,5.68
2023-04-18T15:33:30.346Z,6.78
2023-04-18T15:36:03.517Z,6.93
2023-04-18T15:38:36.523Z,5.88
2023-04-18T15:41:09.216Z,6.15
2023-04-18T15:43:42.349Z,7.55
2023-04-18T15:46:14.992Z,7.50
2023-04-18T15:48:48.025Z,7.13
2023-04-18T15:51:20.716Z,6.72
2023-04-18T15:53:53.804Z,7.93
2023-04-18T15:56:27.294Z,7.45
2023-04-18T15:59:02.957Z,7.78
2023-04-18T16:01:36.169Z,6.70
2023-04-18T16:04:09.467Z,7.25
2023-04-18T16:06:42.220Z,7.22
2023-04-18T16:09:15.113Z,7.82
2023-04-18T16:11:47.845Z,6.90
2023-04-18T16:14:21.607Z,7.00
2023-04-18T16:16:55.616Z,8.18
2023-04-18T16:19:28.631Z,6.38
2023-04-18T16:22:01.413Z,8.00
2023-04-18T16:24:34.490Z,6.57
2023-04-18T16:27:07.107Z,5.40
2023-04-18T16:29:40.212Z,6.30
2023-04-18T16:32:12.941Z,5.38
2023-04-18T16:34:47.107Z,5.95
2023-04-18T16:37:19.726Z,6.05
2023-04-18T16:39:52.700Z,5.72
2023-04-18T16:42:25.634Z,5.95
2023-04-18T16:44:58.668Z,5.72
2023-04-18T16:47:31.419Z,5.55
2023-04-18T16:50:04.681Z,6.00
2023-04-18T16:52:37.399Z,6.30
2023-04-18T16:55:10.408Z,5.85
2023-04-18T16:57:43.039Z,6.25
2023-04-18T17:00:17.486Z,6.22
2023-04-18T17:02:50.338Z,5.90
2023-04-18T17:05:24.340Z,5.03
2023-04-18T17:07:57.298Z,5.53
2023-04-18T17:10:30.630Z,5.10
2023-04-18T17:13:03.592Z,6.10
2023-04-18T17:15:36.983Z,6.20
2023-04-18T17:18:09.599Z,5.55
2023-04-18T17:20:42.601Z,6.35
2023-04-18T17:23:15.629Z,5.95
2023-04-18T17:25:48.614Z,5.93
2023-04-18T17:28:21.732Z,5.80
2023-04-18T17:30:57.700Z,6.13
2023-04-18T17:33:30.413Z,7.10
2023-04-18T17:36:06.223Z,6.05
2023-04-18T17:38:39.136Z,6.30
2023-04-18T17:41:12.228Z,5.95
2023-04-18T17:43:45.462Z,5.75
2023-04-18T17:46:18.652Z,6.63
2023-04-18T17:48:51.379Z,6.43
2023-04-18T17:51:24.779Z,7.18
2023-04-18T17:53:57.427Z,6.25
2023-04-18T17:56:31.889Z,6.32
2023-04-18T17:59:04.506Z,6.30
2023-04-18T18:01:38.479Z,5.95
2023-04-18T18:04:11.495Z,5.70
2023-04-18T18:06:53.475Z,5.95
2023-04-18T18:09:26.292Z,5.68
2023-04-18T18:11:59.558Z,5.53
2023-04-18T18:14:32.105Z,5.80
2023-04-18T18:17:06.162Z,5.53
2023-04-18T18:19:38.971Z,6.22
2023-04-18T18:22:12.904Z,5.90
2023-04-18T18:24:45.957Z,5.57
2023-04-18T18:27:20.733Z,6.10
2023-04-18T18:29:53.637Z,5.95
2023-04-18T18:32:27.449Z,6.35
2023-04-18T18:35:00.324Z,6.35
2023-04-18T18:37:33.511Z,6.03
2023-04-18T18:40:06.999Z,6.85
2023-04-18T18:42:40.214Z,7.63
2023-04-18T18:45:13.008Z,5.68
2023-04-18T18:47:46.561Z,6.15
2023-04-18T18:50:19.229Z,8.65
2023-04-18T18:52:52.213Z,7.78
2023-04-18T18:55:24.790Z,7.20
2023-04-18T18:57:57.715Z,7.50
2023-04-18T19:00:30.446Z,7.43
2023-04-18T19:03:03.741Z,7.53
2023-04-18T19:05:36.813Z,7.80
2023-04-18T19:08:09.795Z,8.15
2023-04-18T19:10:42.520Z,8.93
2023-04-18T19:13:15.859Z,9.32
2023-04-18T19:15:48.532Z,9.23
2023-04-18T19:18:21.773Z,10.00
2023-04-18T19:20:54.369Z,9.25
2023-04-18T19:23:28.210Z,8.65
2023-04-18T19:26:00.873Z,9.32
2023-04-18T19:28:33.841Z,8.07
2023-04-18T19:31:07.256Z,9.05
2023-04-18T19:33:40.190Z,9.48
2023-04-18T19:36:12.816Z,10.50
2023-04-18T19:38:45.908Z,9.07
2023-04-18T19:41:18.585Z,9.35
2023-04-18T19:43:51.764Z,8.57
2023-04-18T19:46:24.359Z,8.25
2023-04-18T19:48:57.363Z,9.27
2023-04-18T19:51:30.489Z,10.85
2023-04-18T19:54:03.602Z,11.18
2023-04-18T19:56:36.253Z,10.73
2023-04-18T19:59:09.152Z,10.48
2023-04-18T20:01:41.875Z,9.43
2023-04-18T20:04:15.080Z,9.40
2023-04-18T20:06:47.813Z,9.35
2023-04-18T20:09:20.855Z,9.48
2023-04-18T20:11:54.724Z,8.98
2023-04-18T20:14:28.452Z,9.05
2023-04-18T20:17:00.999Z,8.40
2023-04-18T20:19:34.383Z,8.68
2023-04-18T20:22:07.265Z,7.25
2023-04-18T20:24:40.266Z,9.23
2023-04-18T20:27:13.015Z,8.27
2023-04-18T20:29:46.688Z,9.05
2023-04-18T20:32:19.361Z,9.43
2023-04-18T20:34:52.381Z,8.98
2023-04-18T20:37:24.958Z,9.18
2023-04-18T20:39:59.174Z,8.50
2023-04-18T20:42:32.739Z,8.30
2023-04-18T20:45:06.579Z,7.80
2023-04-18T20:47:39.938Z,8.57
2023-04-18T20:50:14.476Z,9.02
2023-04-18T20:52:47.540Z,10.43
2023-04-18T20:55:20.498Z,10.38
2023-04-18T20:57:53.117Z,9.07
2023-04-18T21:00:26.326Z,11.20
2023-04-18T21:02:59.021Z,9.18
2023-04-18T21:05:32.622Z,10.10
2023-04-18T21:08:05.431Z,9.02
2023-04-18T21:10:38.893Z,10.30
2023-04-18T21:13:12.964Z,9.80
2023-04-18T21:15:46.501Z,9.88
2023-04-18T21:18:19.471Z,11.57
2023-04-18T21:20:55.458Z,8.77
2023-04-18T21:23:28.101Z,9.82
2023-04-18T21:26:01.231Z,11.32
2023-04-18T21:28:33.883Z,9.65
2023-04-18T21:31:06.865Z,9.60
2023-04-18T21:33:39.476Z,9.10
2023-04-18T21:36:12.335Z,10.98
2023-04-18T21:38:44.949Z,11.57
2023-04-18T21:41:18.154Z,10.60
2023-04-18T21:43:51.072Z,10.45
2023-04-18T21:46:24.028Z,11.75
2023-04-18T21:48:56.764Z,10.25
2023-04-18T21:51:30.041Z,10.35
2023-04-18T21:54:02.567Z,9.88
2023-04-18T21:56:35.654Z,11.45
2023-04-18T21:59:08.201Z,11.60
2023-04-18T22:01:41.312Z,12.00
2023-04-18T22:04:15.042Z,10.93
2023-04-18T22:06:48.271Z,11.75
2023-04-18T22:09:21.312Z,11.23
2023-04-18T22:11:57.120Z,9.90
2023-04-18T22:14:29.843Z,11.38
2023-04-18T22:17:05.414Z,12.50
2023-04-18T22:19:38.006Z,10.48
2023-04-18T22:22:11.072Z,11.60
2023-04-18T22:24:46.111Z,11.50
2023-04-18T22:27:20.472Z,10.88
2023-04-18T22:29:53.110Z,11.73
2023-04-18T22:32:26.541Z,9.93
2023-04-18T22:34:59.097Z,10.95
2023-04-18T22:37:32.079Z,10.55
2023-04-18T22:40:07.592Z,11.18
2023-04-18T22:42:40.610Z,11.55
2023-04-18T22:45:13.935Z,10.82
2023-04-18T22:47:47.135Z,12.20
2023-04-18T22:50:19.909Z,10.52
2023-04-18T22:52:52.890Z,11.45
2023-04-18T22:55:25.625Z,11.95
2023-04-18T22:57:58.534Z,12.15
2023-04-18T23:00:31.321Z,11.18
2023-04-18T23:03:05.381Z,12.00
2023-04-18T23:05:38.197Z,11.20
2023-04-18T23:08:12.379Z,9.25
2023-04-18T23:10:45.583Z,10.20
2023-04-18T23:13:18.718Z,10.13
2023-04-18T23:15:51.476Z,9.30
2023-04-18T23:18:24.521Z,9.90
2023-04-18T23:20:57.164Z,9.05
2023-04-18T23:23:30.291Z,10.85
2023-04-18T23:26:02.996Z,8.75
2023-04-18T23:28:35.989Z,8.15
2023-04-18T23:31:09.817Z,9.18
2023-04-18T23:33:42.917Z,9.77
2023-04-18T23:36:15.906Z,7.90
2023-04-18T23:38:48.876Z,8.70
2023-04-18T23:41:21.454Z,9.15
2023-04-18T23:43:54.455Z,7.45
2023-04-18T23:46:27.178Z,7.75
2023-04-18T23:49:00.520Z,7.70
2023-04-18T23:51:33.230Z,8.25
2023-04-18T23:54:06.547Z,8.02
2023-04-18T23:56:39.437Z,9.25
2023-04-18T23:59:12.523Z,7.10
